createdAt,value
2022-08-01T00:01:33.953Z,4.93
2022-08-01T00:04:03.944Z,4.75
2022-08-01T00:06:32.637Z,4.40
2022-08-01T00:09:01.292Z,4.15
2022-08-01T00:11:29.884Z,4.63
2022-08-01T00:13:58.541Z,4.63
2022-08-01T00:16:27.228Z,3.75
2022-08-01T00:18:56.126Z,4.00
2022-08-01T00:21:26.132Z,3.90
2022-08-01T00:23:54.761Z,4.00
2022-08-01T00:26:23.364Z,3.50
2022-08-01T00:28:51.961Z,3.47
2022-08-01T00:31:21.301Z,4.07
2022-08-01T00:33:50.122Z,3.72
2022-08-01T00:36:18.853Z,4.15
2022-08-01T00:38:48.857Z,4.60
2022-08-01T00:41:17.611Z,4.90
2022-08-01T00:43:46.473Z,4.78
2022-08-01T00:46:15.101Z,4.65
2022-08-01T00:48:43.844Z,4.95
2022-08-01T00:51:12.431Z,5.45
2022-08-01T00:53:51.898Z,4.38
2022-08-01T00:56:23.490Z,4.47
2022-08-01T00:58:52.671Z,4.68
2022-08-01T01:01:22.858Z,4.55
2022-08-01T01:03:59.932Z,4.88
2022-08-01T01:06:31.002Z,4.50
2022-08-01T01:09:05.499Z,5.43
2022-08-01T01:11:40.145Z,5.18
2022-08-01T01:14:12.842Z,4.82
2022-08-01T01:16:43.905Z,5.25
2022-08-01T01:19:16.643Z,4.63
2022-08-01T01:22:04.346Z,4.85
2022-08-01T01:24:37.850Z,4.32
2022-08-01T01:27:11.579Z,4.20
2022-08-01T01:29:59.950Z,4.40
2022-08-01T01:32:34.674Z,4.07
2022-08-01T01:35:04.720Z,3.92
2022-08-01T01:37:35.967Z,3.88
2022-08-01T01:40:06.521Z,3.97
2022-08-01T01:42:35.423Z,3.83
2022-08-01T01:45:06.341Z,3.85
2022-08-01T01:47:35.855Z,4.03
2022-08-01T01:50:05.090Z,4.10
2022-08-01T01:52:34.741Z,3.72
2022-08-01T01:55:06.563Z,3.35
2022-08-01T01:57:35.354Z,4.15
2022-08-01T02:00:07.104Z,3.35
2022-08-01T02:05:04.481Z,3.42
2022-08-01T02:07:33.529Z,3.40
2022-08-01T02:10:03.687Z,3.47
2022-08-01T02:12:34.184Z,3.22
2022-08-01T02:15:03.318Z,3.20
2022-08-01T02:17:33.812Z,3.20
2022-08-01T02:20:03.062Z,3.70
2022-08-01T02:22:33.868Z,3.05
2022-08-01T02:25:03.900Z,3.60
2022-08-01T02:27:36.656Z,3.70
2022-08-01T02:30:07.310Z,3.47
2022-08-01T02:32:39.457Z,3.22
2022-08-01T02:35:10.186Z,2.90
2022-08-01T02:37:45.133Z,3.33
2022-08-01T02:40:16.246Z,2.90
2022-08-01T02:42:46.526Z,3.50
2022-08-01T02:45:15.786Z,3.30
2022-08-01T02:47:46.990Z,3.03
2022-08-01T02:50:17.673Z,2.88
2022-08-01T02:52:48.504Z,3.13
2022-08-01T02:55:17.714Z,3.20
2022-08-01T02:57:52.180Z,3.08
2022-08-01T03:00:25.230Z,3.25
2022-08-01T03:02:57.015Z,2.78
2022-08-01T03:05:27.067Z,3.08
2022-08-01T03:07:57.027Z,3.40
2022-08-01T03:10:33.686Z,3.28
2022-08-01T03:13:03.155Z,3.05
2022-08-01T03:15:32.882Z,3.58
2022-08-01T03:18:04.690Z,3.08
2022-08-01T03:20:34.108Z,3.10
2022-08-01T03:23:03.024Z,2.92
2022-08-01T03:25:32.341Z,2.90
2022-08-01T03:28:01.721Z,2.92
2022-08-01T03:30:30.952Z,2.80
2022-08-01T03:33:00.062Z,2.90
2022-08-01T03:35:32.758Z,3.00
2022-08-01T03:38:18.199Z,3.17
2022-08-01T03:40:49.957Z,2.90
2022-08-01T03:45:49.024Z,3.00
2022-08-01T03:48:19.592Z,3.10
2022-08-01T03:50:53.270Z,3.00
2022-08-01T03:53:23.533Z,2.78
2022-08-01T03:55:52.547Z,3.20
2022-08-01T03:58:21.820Z,2.67
2022-08-01T04:00:50.843Z,3.03
2022-08-01T04:03:20.067Z,2.75
2022-08-01T04:05:50.133Z,2.92
2022-08-01T04:08:18.922Z,2.83
2022-08-01T04:10:47.633Z,2.63
2022-08-01T04:13:19.059Z,2.88
2022-08-01T04:15:47.748Z,2.80
2022-08-01T04:18:16.404Z,2.80
2022-08-01T04:20:44.987Z,2.88
2022-08-01T04:23:16.469Z,3.03
2022-08-01T04:25:45.953Z,3.10
2022-08-01T04:28:17.393Z,2.90
2022-08-01T04:30:47.436Z,3.30
2022-08-01T04:33:17.540Z,2.95
2022-08-01T04:36:03.228Z,2.75
2022-08-01T04:38:37.723Z,2.70
2022-08-01T04:41:09.410Z,2.90
2022-08-01T04:43:38.730Z,3.05
2022-08-01T04:46:08.553Z,3.33
2022-08-01T04:48:38.951Z,3.00
2022-08-01T04:51:07.803Z,3.35
2022-08-01T04:53:37.763Z,2.83
2022-08-01T04:56:06.937Z,3.50
2022-08-01T04:58:35.627Z,3.10
2022-08-01T05:01:04.378Z,2.88
2022-08-01T05:03:37.051Z,3.50
2022-08-01T05:06:07.443Z,2.92
2022-08-01T05:08:37.239Z,2.63
2022-08-01T05:11:07.446Z,3.00
2022-08-01T05:13:36.116Z,3.22
2022-08-01T05:16:04.829Z,2.97
2022-08-01T05:18:33.998Z,2.80
2022-08-01T05:21:04.040Z,3.35
2022-08-01T05:23:42.953Z,3.35
2022-08-01T05:26:15.035Z,3.08
2022-08-01T05:28:44.385Z,3.00
2022-08-01T05:31:13.081Z,2.97
2022-08-01T05:33:41.629Z,2.90
2022-08-01T05:36:10.731Z,2.97
2022-08-01T05:38:39.308Z,3.10
2022-08-01T05:41:07.986Z,3.08
2022-08-01T05:43:38.013Z,3.00
2022-08-01T05:46:06.708Z,3.10
2022-08-01T05:48:35.356Z,2.97
2022-08-01T05:51:03.988Z,3.05
2022-08-01T05:53:35.309Z,3.15
2022-08-01T05:56:03.933Z,2.97
2022-08-01T05:58:32.836Z,2.85
2022-08-01T06:01:02.878Z,3.15
2022-08-01T06:03:34.265Z,3.50
2022-08-01T06:06:03.161Z,2.90
2022-08-01T06:08:31.907Z,3.10
2022-08-01T06:11:00.731Z,3.10
2022-08-01T06:13:29.570Z,2.85
2022-08-01T06:15:58.890Z,3.17
2022-08-01T06:18:28.919Z,3.50
2022-08-01T06:20:57.611Z,3.22
2022-08-01T06:23:32.756Z,3.08
2022-08-01T06:26:01.671Z,3.10
2022-08-01T06:28:30.768Z,3.08
2022-08-01T06:31:00.738Z,2.95
2022-08-01T06:33:31.185Z,3.00
2022-08-01T06:35:59.931Z,3.78
2022-08-01T06:38:28.691Z,2.80
2022-08-01T06:40:57.350Z,3.00
2022-08-01T06:43:25.981Z,3.05
2022-08-01T06:45:54.585Z,3.88
2022-08-01T06:48:23.387Z,2.90
2022-08-01T06:51:08.941Z,3.30
2022-08-01T06:53:38.087Z,3.35
2022-08-01T06:56:07.342Z,3.45
2022-08-01T06:58:36.456Z,3.30
2022-08-01T07:01:07.021Z,3.22
2022-08-01T07:03:53.280Z,3.40
2022-08-01T07:06:24.955Z,3.60
2022-08-01T07:08:53.676Z,3.70
2022-08-01T07:11:22.305Z,3.58
2022-08-01T07:13:50.990Z,3.80
2022-08-01T07:16:20.095Z,3.63
2022-08-01T07:18:48.682Z,3.55
2022-08-01T07:21:39.341Z,2.97
2022-08-01T07:24:13.094Z,3.35
2022-08-01T07:26:53.805Z,3.30
2022-08-01T07:29:23.839Z,3.40
2022-08-01T07:31:52.509Z,3.35
2022-08-01T07:34:21.246Z,3.50
2022-08-01T07:36:49.901Z,3.42
2022-08-01T07:39:19.970Z,3.33
2022-08-01T07:42:06.716Z,3.38
2022-08-01T07:44:36.816Z,2.97
2022-08-01T07:47:05.689Z,3.58
2022-08-01T07:49:39.612Z,3.45
2022-08-01T07:52:09.430Z,3.50
2022-08-01T07:54:39.433Z,3.20
2022-08-01T07:57:08.142Z,3.35
2022-08-01T07:59:37.019Z,3.72
2022-08-01T08:02:06.066Z,3.35
2022-08-01T08:04:35.050Z,3.35
2022-08-01T08:07:04.259Z,3.42
2022-08-01T08:09:38.109Z,3.63
2022-08-01T08:12:09.278Z,4.00
2022-08-01T08:14:38.267Z,3.92
2022-08-01T08:17:06.939Z,3.50
2022-08-01T08:19:39.027Z,3.75
2022-08-01T08:22:08.956Z,3.72
2022-08-01T08:24:45.475Z,3.83
2022-08-01T08:27:17.097Z,3.80
2022-08-01T08:29:47.928Z,3.40
2022-08-01T08:32:16.680Z,3.63
2022-08-01T08:34:45.308Z,3.50
2022-08-01T08:37:14.148Z,3.25
2022-08-01T08:39:42.774Z,3.30
2022-08-01T08:42:11.911Z,3.58
2022-08-01T08:44:43.691Z,3.80
2022-08-01T08:47:19.712Z,3.13
2022-08-01T08:49:51.959Z,3.72
2022-08-01T08:52:22.027Z,3.70
2022-08-01T08:54:51.228Z,3.47
2022-08-01T08:57:21.371Z,3.70
2022-08-01T08:59:55.149Z,3.65
2022-08-01T09:02:24.289Z,3.63
2022-08-01T09:04:53.671Z,3.72
2022-08-01T09:07:23.876Z,3.70
2022-08-01T09:09:52.955Z,3.60
2022-08-01T09:12:22.583Z,3.22
2022-08-01T09:14:54.453Z,3.80
2022-08-01T09:17:23.242Z,3.38
2022-08-01T09:19:54.573Z,3.03
2022-08-01T09:22:24.172Z,3.53
2022-08-01T09:25:03.438Z,3.35
2022-08-01T09:27:32.807Z,3.17
2022-08-01T09:30:12.361Z,3.15
2022-08-01T09:32:55.896Z,3.25
2022-08-01T09:35:30.854Z,2.85
2022-08-01T09:38:19.866Z,3.15
2022-08-01T09:40:49.539Z,3.15
2022-08-01T09:43:19.221Z,3.15
2022-08-01T09:45:53.007Z,2.83
2022-08-01T09:48:28.650Z,2.72
2022-08-01T09:51:04.240Z,3.17
2022-08-01T09:53:43.016Z,2.70
2022-08-01T09:56:20.376Z,2.88
2022-08-01T09:58:58.835Z,3.15
2022-08-01T10:01:36.885Z,3.05
2022-08-01T10:04:11.938Z,2.78
2022-08-01T10:06:41.686Z,2.10
2022-08-01T10:09:10.568Z,2.50
2022-08-01T10:11:40.270Z,3.00
2022-08-01T10:14:09.406Z,2.75
2022-08-01T10:16:39.697Z,2.30
2022-08-01T10:19:11.334Z,2.83
2022-08-01T10:21:56.681Z,2.47
2022-08-01T10:24:28.139Z,2.42
2022-08-01T10:27:07.939Z,2.72
2022-08-01T10:30:05.288Z,2.28
2022-08-01T10:32:35.926Z,2.40
2022-08-01T10:35:06.811Z,2.17
2022-08-01T10:37:36.438Z,2.65
2022-08-01T10:40:30.382Z,2.40
2022-08-01T10:42:59.829Z,2.22
2022-08-01T10:45:30.332Z,2.40
2022-08-01T10:48:03.207Z,2.50
2022-08-01T10:50:34.211Z,2.10
2022-08-01T10:53:24.015Z,2.17
2022-08-01T10:56:02.582Z,2.20
2022-08-01T11:01:22.299Z,2.33
2022-08-01T11:04:05.463Z,2.10
2022-08-01T11:06:44.885Z,2.20
2022-08-01T11:09:36.921Z,1.90
2022-08-01T11:12:08.185Z,2.30
2022-08-01T11:15:03.537Z,2.45
2022-08-01T11:17:37.884Z,2.15
2022-08-01T11:20:09.985Z,2.17
2022-08-01T11:22:53.460Z,2.28
2022-08-01T11:26:06.295Z,2.30
2022-08-01T11:28:32.372Z,1.90
2022-08-01T11:33:51.130Z,2.30
2022-08-01T11:36:55.456Z,2.08
2022-08-01T11:39:18.585Z,2.20
2022-08-01T11:41:49.347Z,2.17
2022-08-01T11:44:24.927Z,2.08
2022-08-01T11:47:09.218Z,2.25
2022-08-01T11:50:00.655Z,2.28
2022-08-01T11:52:32.770Z,2.60
2022-08-01T11:55:09.998Z,2.15
2022-08-01T11:57:39.705Z,2.80
2022-08-01T12:00:15.418Z,2.03
2022-08-01T12:02:46.251Z,1.75
2022-08-01T12:05:17.458Z,2.03
2022-08-01T12:07:51.954Z,2.15
2022-08-01T12:10:21.270Z,1.75
2022-08-01T12:12:50.782Z,2.33
2022-08-01T12:15:20.283Z,1.80
2022-08-01T12:17:58.134Z,1.63
2022-08-01T12:20:30.280Z,1.90
2022-08-01T12:23:01.611Z,2.05
2022-08-01T12:25:30.232Z,1.92
2022-08-01T12:28:02.531Z,1.50
2022-08-01T12:30:32.671Z,2.10
2022-08-01T12:33:01.378Z,1.95
2022-08-01T12:35:30.597Z,1.75
2022-08-01T12:38:02.159Z,1.65
2022-08-01T12:40:31.536Z,1.92
2022-08-01T12:43:01.477Z,1.70
2022-08-01T12:45:31.602Z,2.10
2022-08-01T12:48:01.762Z,1.70
2022-08-01T12:50:31.682Z,1.13
2022-08-01T12:53:02.127Z,1.38
2022-08-01T12:55:33.581Z,1.60
2022-08-01T12:58:10.412Z,1.60
2022-08-01T13:00:45.327Z,1.60
2022-08-01T13:03:15.312Z,1.52
2022-08-01T13:05:45.014Z,1.40
2022-08-01T13:08:15.765Z,1.38
2022-08-01T13:10:44.815Z,1.40
2022-08-01T13:13:28.388Z,1.27
2022-08-01T13:16:06.314Z,1.60
2022-08-01T13:18:35.583Z,1.60
2022-08-01T13:21:11.774Z,1.50
2022-08-01T13:24:03.424Z,1.48
2022-08-01T13:26:43.452Z,1.50
2022-08-01T13:29:12.716Z,1.33
2022-08-01T13:31:41.902Z,1.35
2022-08-01T13:34:10.724Z,1.40
2022-08-01T13:36:43.024Z,1.48
2022-08-01T13:39:34.695Z,1.30
2022-08-01T13:42:03.880Z,1.50
2022-08-01T13:44:32.798Z,1.52
2022-08-01T13:47:02.756Z,1.60
2022-08-01T13:49:44.768Z,1.13
2022-08-01T13:52:13.484Z,1.23
2022-08-01T13:54:43.444Z,1.27
2022-08-01T13:57:12.110Z,1.30
2022-08-01T13:59:40.698Z,1.45
2022-08-01T14:02:09.916Z,1.50
2022-08-01T14:04:38.694Z,1.23
2022-08-01T14:07:10.743Z,1.50
2022-08-01T14:10:04.275Z,1.17
2022-08-01T14:12:34.299Z,1.60
2022-08-01T14:15:03.038Z,1.23
2022-08-01T14:17:31.829Z,1.85
2022-08-01T14:20:00.857Z,2.13
2022-08-01T14:22:29.481Z,3.15
2022-08-01T14:25:03.493Z,4.90
2022-08-01T14:27:32.761Z,3.42
2022-08-01T14:30:03.659Z,3.60
2022-08-01T14:32:34.351Z,3.38
2022-08-01T14:35:03.094Z,2.78
2022-08-01T14:37:37.352Z,2.72
2022-08-01T14:40:11.538Z,2.55
2022-08-01T14:42:40.769Z,2.40
2022-08-01T14:45:10.832Z,2.20
2022-08-01T14:47:39.744Z,2.40
2022-08-01T14:50:09.044Z,2.65
2022-08-01T14:52:38.306Z,2.42
2022-08-01T14:55:09.840Z,2.08
2022-08-01T14:57:38.687Z,2.33
2022-08-01T15:00:09.153Z,2.42
2022-08-01T15:02:37.755Z,2.35
2022-08-01T15:05:06.702Z,2.53
2022-08-01T15:07:39.085Z,2.72
2022-08-01T15:10:13.796Z,2.40
2022-08-01T15:12:50.196Z,2.33
2022-08-01T15:15:19.117Z,2.03
2022-08-01T15:17:48.000Z,2.00
2022-08-01T15:20:16.637Z,2.17
2022-08-01T15:22:45.254Z,2.03
2022-08-01T15:25:15.257Z,2.00
2022-08-01T15:27:44.196Z,2.10
2022-08-01T15:30:13.287Z,1.88
2022-08-01T15:32:41.959Z,1.92
2022-08-01T15:35:11.510Z,2.00
2022-08-01T15:37:43.018Z,2.15
2022-08-01T15:40:13.059Z,1.60
2022-08-01T15:42:43.224Z,1.92
2022-08-01T15:45:37.358Z,1.70
2022-08-01T15:48:03.073Z,2.05
2022-08-01T15:50:31.950Z,1.88
2022-08-01T15:53:00.721Z,1.70
2022-08-01T15:55:29.340Z,1.90
2022-08-01T15:57:59.355Z,1.92
2022-08-01T16:00:32.959Z,2.15
2022-08-01T16:03:07.888Z,2.30
2022-08-01T16:05:42.943Z,2.10
2022-08-01T16:08:12.420Z,1.95
2022-08-01T16:10:41.120Z,1.90
2022-08-01T16:13:11.437Z,1.90
2022-08-01T16:15:40.426Z,1.88
2022-08-01T16:18:09.679Z,2.10
2022-08-01T16:20:44.756Z,1.88
2022-08-01T16:23:14.654Z,2.20
2022-08-01T16:25:44.570Z,1.90
2022-08-01T16:28:15.108Z,1.80
2022-08-01T16:30:48.668Z,1.90
2022-08-01T16:33:47.351Z,1.88
2022-08-01T16:36:16.643Z,1.90
2022-08-01T16:38:45.952Z,1.77
2022-08-01T16:41:19.831Z,1.75
2022-08-01T16:43:53.953Z,1.90
2022-08-01T16:46:25.127Z,1.70
2022-08-01T16:48:54.207Z,1.50
2022-08-01T16:51:23.019Z,1.52
2022-08-01T16:53:51.866Z,1.65
2022-08-01T16:56:23.288Z,1.60
2022-08-01T16:58:53.412Z,1.45
2022-08-01T17:01:56.168Z,1.50
2022-08-01T17:04:13.303Z,1.73
2022-08-01T17:06:42.009Z,1.52
2022-08-01T17:09:11.016Z,1.90
2022-08-01T17:11:39.884Z,1.63
2022-08-01T17:14:10.086Z,1.40
2022-08-01T17:16:38.855Z,1.80
2022-08-01T17:19:07.583Z,1.40
2022-08-01T17:21:39.804Z,1.42
2022-08-01T17:24:11.541Z,1.60
2022-08-01T17:26:45.316Z,1.90
2022-08-01T17:29:16.971Z,16.23
2022-08-01T17:31:45.703Z,115.20
2022-08-01T17:34:14.407Z,128.25
2022-08-01T17:36:43.070Z,120.82
2022-08-01T17:39:13.433Z,125.97
2022-08-01T17:41:42.508Z,153.95
2022-08-01T17:44:11.597Z,133.52
2022-08-01T17:46:41.558Z,100.60
2022-08-01T17:49:10.334Z,95.45
2022-08-01T17:51:38.975Z,149.90
2022-08-01T17:54:10.457Z,213.27
2022-08-01T17:56:42.970Z,206.60
2022-08-01T17:59:14.779Z,219.63
2022-08-01T18:01:45.193Z,251.52
2022-08-01T18:04:14.391Z,186.70
2022-08-01T18:06:58.331Z,153.50
2022-08-01T18:09:28.077Z,145.77
2022-08-01T18:11:56.813Z,211.88
2022-08-01T18:14:39.985Z,277.17
2022-08-01T18:17:11.570Z,282.25
2022-08-01T18:19:40.557Z,350.73
2022-08-01T18:22:31.355Z,270.63
2022-08-01T18:24:58.125Z,233.27
2022-08-01T18:28:16.090Z,207.55
2022-08-01T18:30:15.501Z,214.00
2022-08-01T18:32:45.630Z,191.63
2022-08-01T18:35:14.592Z,175.57
2022-08-01T18:37:54.417Z,168.73
2022-08-01T18:40:24.751Z,161.02
2022-08-01T18:42:54.419Z,143.45
2022-08-01T18:45:23.171Z,146.25
2022-08-01T18:47:54.176Z,128.52
2022-08-01T18:50:24.311Z,123.53
2022-08-01T18:52:52.998Z,115.90
2022-08-01T18:55:21.859Z,99.97
2022-08-01T18:57:50.690Z,92.65
2022-08-01T19:00:19.656Z,95.72
2022-08-01T19:02:48.353Z,81.82
2022-08-01T19:05:18.391Z,62.88
2022-08-01T19:08:04.987Z,50.10
2022-08-01T19:10:35.701Z,51.28
2022-08-01T19:13:04.558Z,60.38
2022-08-01T19:15:33.397Z,43.45
2022-08-01T19:18:02.350Z,60.00
2022-08-01T19:20:32.345Z,44.33
2022-08-01T19:23:20.958Z,27.10
2022-08-01T19:25:56.133Z,22.15
2022-08-01T19:28:26.247Z,19.95
2022-08-01T19:30:55.733Z,22.88
2022-08-01T19:33:24.379Z,22.35
2022-08-01T19:35:54.933Z,23.70
2022-08-01T19:38:23.734Z,22.27
2022-08-01T19:40:52.345Z,20.10
2022-08-01T19:43:23.109Z,20.25
2022-08-01T19:45:52.322Z,18.07
2022-08-01T19:48:20.919Z,14.68
2022-08-01T19:50:50.466Z,17.52
2022-08-01T19:53:21.409Z,20.95
2022-08-01T19:55:50.234Z,19.25
2022-08-01T19:58:27.827Z,20.83
2022-08-01T20:00:57.178Z,15.30
2022-08-01T20:03:28.287Z,11.13
2022-08-01T20:05:57.126Z,15.40
2022-08-01T20:08:27.999Z,10.05
2022-08-01T20:10:56.988Z,11.05
2022-08-01T20:13:25.682Z,8.00
2022-08-01T20:16:06.342Z,8.43
2022-08-01T20:18:34.924Z,11.98
2022-08-01T20:21:06.293Z,7.00
2022-08-01T20:23:39.289Z,4.95
2022-08-01T20:26:08.734Z,7.88
2022-08-01T20:28:37.994Z,6.47
2022-08-01T20:31:08.246Z,5.00
2022-08-01T20:33:41.411Z,4.75
2022-08-01T20:36:12.195Z,8.00
2022-08-01T20:38:56.393Z,5.75
2022-08-01T20:43:55.019Z,94.95
2022-08-01T20:46:25.260Z,203.50
2022-08-01T20:48:55.346Z,136.35
2022-08-01T20:51:25.578Z,179.40
2022-08-01T20:53:56.177Z,98.68
2022-08-01T20:56:27.778Z,85.03
2022-08-01T21:01:29.486Z,100.00
2022-08-01T21:04:15.970Z,100.73
2022-08-01T21:06:45.202Z,172.15
2022-08-01T21:09:16.074Z,127.00
2022-08-01T21:11:46.768Z,170.50
2022-08-01T21:14:16.315Z,141.15
2022-08-01T21:16:48.300Z,173.90
2022-08-01T21:19:21.439Z,212.30
2022-08-01T21:21:52.208Z,286.88
2022-08-01T21:24:25.086Z,208.93
2022-08-01T21:26:53.845Z,162.07
2022-08-01T21:29:23.070Z,120.32
2022-08-01T21:32:11.523Z,97.20
2022-08-01T21:34:40.662Z,52.38
2022-08-01T21:37:10.305Z,30.27
2022-08-01T21:39:40.679Z,20.60
2022-08-01T21:42:11.986Z,13.55
2022-08-01T21:44:44.568Z,9.65
2022-08-01T21:47:13.298Z,6.53
2022-08-01T21:49:42.194Z,5.00
2022-08-01T21:52:15.205Z,5.00
2022-08-01T21:54:52.115Z,3.40
2022-08-01T21:57:27.592Z,3.33
2022-08-01T21:59:57.666Z,3.08
2022-08-01T22:02:29.447Z,2.80
2022-08-01T22:05:04.822Z,2.35
2022-08-01T22:07:35.839Z,1.83
2022-08-01T22:10:07.360Z,1.60
2022-08-01T22:12:36.903Z,1.65
2022-08-01T22:18:01.316Z,1.20
2022-08-01T22:20:30.284Z,1.48
2022-08-01T22:22:58.977Z,1.60
2022-08-01T22:25:32.691Z,1.35
2022-08-01T22:28:08.468Z,1.40
2022-08-01T22:30:42.339Z,1.70
2022-08-01T22:33:16.130Z,1.50
2022-08-01T22:35:46.620Z,1.40
2022-08-01T22:38:15.293Z,1.17
2022-08-01T22:40:50.078Z,1.33
2022-08-01T22:43:28.244Z,1.50
2022-08-01T22:46:11.360Z,1.30
2022-08-01T22:48:46.200Z,1.45
2022-08-01T22:51:19.659Z,1.25
2022-08-01T22:53:53.546Z,1.33
2022-08-01T22:56:24.392Z,1.00
2022-08-01T22:58:54.302Z,1.30
2022-08-01T23:01:23.704Z,1.17
2022-08-01T23:03:52.737Z,1.10
2022-08-01T23:06:23.224Z,1.00
2022-08-01T23:08:52.185Z,0.90
2022-08-01T23:11:21.398Z,1.00
2022-08-01T23:13:52.626Z,0.93
2022-08-01T23:16:21.494Z,1.05
2022-08-01T23:18:53.197Z,0.95
2022-08-01T23:23:50.313Z,1.05
2022-08-01T23:26:19.054Z,1.10
2022-08-01T23:28:47.796Z,0.98
2022-08-01T23:31:18.167Z,1.10
2022-08-01T23:33:47.092Z,1.00
2022-08-01T23:36:17.431Z,1.02
2022-08-01T23:38:46.071Z,1.00
2022-08-01T23:41:15.918Z,1.23
2022-08-01T23:43:50.943Z,1.00
2022-08-01T23:46:22.441Z,1.15
2022-08-01T23:48:51.160Z,1.00
2022-08-01T23:51:24.744Z,1.00
2022-08-01T23:53:53.936Z,1.02
2022-08-01T23:56:25.348Z,1.02
2022-08-01T23:58:55.510Z,1.50
